Terminal Aerodrome Forecast
Issued by NWS Milwaukee/Sullivan, WI

Home | Current Version | Previous Version | Text Only | Print | Product List | Glossary On
Versions: 1 2 3 4 5 6 7 8 9 10 11 12 13 14 15 16 17 18 19 20 21 22 23 24 25 26 27 28 29 30 31 32 33
000
FTUS43 KMKX 231516 AAA
TAFMKE
TAF AMD
KMKE 231516Z 2315/2418 23005KT 2SM -DZ BR OVC003
     FM231600 24012KT 6SM BR BKN005
     FM231800 26012G22KT P6SM BKN007
     FM232000 27011G22KT P6SM BKN015
     FM232200 27010KT P6SM SCT025
     FM241600 08011KT P6SM BKN100=

USA.gov is the U.S. government's official web portal to all federal, state and local government web resources and services.